SAA442 FYWH-FACT
Flight info
| Callsign | SAA442 |
|---|---|
| Flight time | N/A |
| Altitude | 34000 |
| Route | UVORI1B UVORI UN185 KEBAT R987 ERDAS ERDAS1C |
| Aircraft | A320/M-SDE3FGHIRWY/LB1 |
Departure
| Time | 2026-05-04 13:22 |
|---|---|
| Airport | Hosea Kutako International Airport (FYWH) |
Arrival
| Time | N/A |
|---|---|
| Airport | Cape Town International Airport (FACT) |
| Time | Latitude | Longitude | Altitude | Speed | Heading |
|---|---|---|---|---|---|
| 2026-05-04 12:57 | -22.48659 | 17.46179 | 5628 ft | 0 kts | 159° |
| 2026-05-04 13:17 | -22.48660 | 17.46183 | 5628 ft | 1 kts | 126° |
| 2026-05-04 13:18 | -22.48635 | 17.46196 | 5628 ft | 6 kts | 18° |
| 2026-05-04 13:18 | -22.48552 | 17.46225 | 5627 ft | 20 kts | 19° |
| 2026-05-04 13:18 | -22.48456 | 17.46343 | 5624 ft | 23 kts | 64° |
| 2026-05-04 13:18 | -22.48388 | 17.46502 | 5622 ft | 24 kts | 64° |
| 2026-05-04 13:19 | -22.48310 | 17.46670 | 5620 ft | 26 kts | 62° |
| 2026-05-04 13:19 | -22.48229 | 17.46846 | 5617 ft | 27 kts | 63° |
| 2026-05-04 13:19 | -22.48142 | 17.47033 | 5614 ft | 29 kts | 63° |
| 2026-05-04 13:19 | -22.48071 | 17.47191 | 5615 ft | 21 kts | 65° |
| 2026-05-04 13:20 | -22.48001 | 17.47346 | 5612 ft | 25 kts | 64° |
| 2026-05-04 13:20 | -22.47918 | 17.47523 | 5600 ft | 28 kts | 63° |
| 2026-05-04 13:20 | -22.47826 | 17.47719 | 5581 ft | 30 kts | 63° |
| 2026-05-04 13:20 | -22.47745 | 17.47890 | 5572 ft | 15 kts | 50° |
| 2026-05-04 13:21 | -22.47672 | 17.47909 | 5573 ft | 7 kts | 338° |
| 2026-05-04 13:21 | -22.47633 | 17.47886 | 5574 ft | 6 kts | 328° |
| 2026-05-04 13:21 | -22.47643 | 17.47851 | 5575 ft | 11 kts | 246° |
| 2026-05-04 13:21 | -22.47706 | 17.47705 | 5585 ft | 34 kts | 242° |
| 2026-05-04 13:22 | -22.47908 | 17.47269 | 5610 ft | 96 kts | 244° |
| 2026-05-04 13:22 | -22.48287 | 17.46447 | 5622 ft | 147 kts | 243° |
| 2026-05-04 13:22 | -22.48818 | 17.45315 | 5672 ft | 186 kts | 249° |
| 2026-05-04 13:22 | -22.49377 | 17.44120 | 6552 ft | 172 kts | 249° |
| 2026-05-04 13:23 | -22.49898 | 17.42933 | 7136 ft | 174 kts | 251° |
| 2026-05-04 13:23 | -22.50377 | 17.41738 | 7556 ft | 176 kts | 252° |
| 2026-05-04 13:23 | -22.50916 | 17.40467 | 7798 ft | 195 kts | 250° |
| 2026-05-04 13:23 | -22.51559 | 17.39098 | 8049 ft | 211 kts | 248° |
| 2026-05-04 13:24 | -22.52284 | 17.37665 | 8419 ft | 223 kts | 246° |
| 2026-05-04 13:24 | -22.48659 | 17.46179 | 8609 ft | 11 kts | 159° |
| 2026-05-04 13:33 | -22.48660 | 17.46180 | 5628 ft | 0 kts | 158° |
| 2026-05-04 13:33 | -22.48659 | 17.46212 | 5628 ft | 12 kts | 78° |
| 2026-05-04 13:34 | -22.48600 | 17.46247 | 5627 ft | 11 kts | 12° |
| 2026-05-04 13:34 | -22.48496 | 17.46282 | 5625 ft | 21 kts | 42° |
| 2026-05-04 13:34 | -22.48411 | 17.46452 | 5623 ft | 26 kts | 64° |
| 2026-05-04 13:34 | -22.48327 | 17.46632 | 5622 ft | 28 kts | 63° |
| 2026-05-04 13:35 | -22.48241 | 17.46820 | 5618 ft | 28 kts | 64° |
| 2026-05-04 13:35 | -22.48057 | 17.47225 | 5612 ft | 31 kts | 65° |
| 2026-05-04 13:35 | -22.47965 | 17.47427 | 5608 ft | 28 kts | 62° |
| 2026-05-04 13:36 | -22.47869 | 17.47628 | 5586 ft | 32 kts | 63° |
| 2026-05-04 13:36 | -22.47775 | 17.47835 | 5577 ft | 24 kts | 64° |
| 2026-05-04 13:36 | -22.47702 | 17.47912 | 5573 ft | 11 kts | 356° |
| 2026-05-04 13:36 | -22.47643 | 17.47887 | 5574 ft | 8 kts | 326° |
| 2026-05-04 13:37 | -22.47635 | 17.47869 | 5576 ft | 1 kts | 256° |
| 2026-05-04 13:37 | -22.47669 | 17.47791 | 5580 ft | 40 kts | 243° |
| 2026-05-04 13:37 | -22.47906 | 17.47279 | 5610 ft | 109 kts | 243° |
| 2026-05-04 13:37 | -22.48330 | 17.46357 | 5624 ft | 163 kts | 244° |
| 2026-05-04 13:38 | -22.48839 | 17.45197 | 6183 ft | 168 kts | 248° |
| 2026-05-04 13:38 | -22.49328 | 17.44086 | 6938 ft | 159 kts | 250° |
| 2026-05-04 13:38 | -22.49815 | 17.43061 | 7672 ft | 148 kts | 250° |
| 2026-05-04 13:38 | -22.50280 | 17.42045 | 7688 ft | 160 kts | 250° |
| 2026-05-04 13:39 | -22.50779 | 17.40948 | 7962 ft | 162 kts | 250° |
| 2026-05-04 13:39 | -22.51293 | 17.39819 | 8127 ft | 173 kts | 251° |
| 2026-05-04 13:39 | -22.51809 | 17.38625 | 8412 ft | 177 kts | 252° |
| 2026-05-04 13:39 | -22.52305 | 17.37401 | 8733 ft | 179 kts | 252° |
| 2026-05-04 13:40 | -22.52833 | 17.36171 | 9006 ft | 186 kts | 250° |
| 2026-05-04 13:40 | -22.53462 | 17.34890 | 9148 ft | 203 kts | 244° |
| 2026-05-04 13:40 | -22.54633 | 17.33862 | 9276 ft | 240 kts | 204° |
| 2026-05-04 13:40 | -22.56403 | 17.33816 | 9375 ft | 276 kts | 165° |
| 2026-05-04 13:41 | -22.58190 | 17.34808 | 9549 ft | 303 kts | 146° |
| 2026-05-04 13:41 | -22.59854 | 17.36306 | 9936 ft | 317 kts | 138° |
| 2026-05-04 13:41 | -22.61463 | 17.37986 | 10454 ft | 325 kts | 137° |
| 2026-05-04 13:42 | -22.64759 | 17.41392 | 11729 ft | 328 kts | 140° |
| 2026-05-04 13:42 | -22.66444 | 17.43010 | 12372 ft | 329 kts | 141° |
| 2026-05-04 13:42 | -22.68218 | 17.44638 | 13000 ft | 331 kts | 143° |
| 2026-05-04 13:42 | -22.69978 | 17.46211 | 13630 ft | 333 kts | 143° |
| 2026-05-04 13:43 | -22.71780 | 17.47803 | 13900 ft | 333 kts | 143° |
| 2026-05-04 13:43 | -22.73577 | 17.49385 | 13962 ft | 333 kts | 144° |
| 2026-05-04 13:43 | -22.75436 | 17.50888 | 14085 ft | 336 kts | 155° |
| 2026-05-04 13:43 | -22.77679 | 17.51662 | 14197 ft | 344 kts | 180° |
| 2026-05-04 13:44 | -22.80117 | 17.51672 | 14370 ft | 358 kts | 182° |
| 2026-05-04 13:44 | -22.82637 | 17.51959 | 14794 ft | 367 kts | 176° |
| 2026-05-04 13:44 | -22.85188 | 17.52337 | 15293 ft | 372 kts | 176° |
| 2026-05-04 13:44 | -22.87765 | 17.52756 | 15795 ft | 376 kts | 175° |
| 2026-05-04 13:45 | -22.90367 | 17.53213 | 16276 ft | 380 kts | 174° |
| 2026-05-04 13:45 | -22.92958 | 17.53695 | 16741 ft | 385 kts | 173° |
| 2026-05-04 13:45 | -22.95616 | 17.54204 | 17246 ft | 389 kts | 173° |
| 2026-05-04 13:45 | -22.98298 | 17.54723 | 17726 ft | 393 kts | 173° |
| 2026-05-04 13:46 | -23.01004 | 17.55247 | 18206 ft | 397 kts | 173° |
| 2026-05-04 13:46 | -23.03734 | 17.55771 | 18651 ft | 401 kts | 173° |
| 2026-05-04 13:46 | -23.06493 | 17.56293 | 19121 ft | 403 kts | 173° |
| 2026-05-04 13:46 | -23.09274 | 17.56813 | 19610 ft | 407 kts | 174° |
| 2026-05-04 13:47 | -23.12077 | 17.57336 | 20095 ft | 410 kts | 174° |
| 2026-05-04 13:47 | -23.14900 | 17.57866 | 20573 ft | 413 kts | 174° |
| 2026-05-04 13:47 | -23.17741 | 17.58400 | 21052 ft | 416 kts | 174° |
| 2026-05-04 13:47 | -23.20602 | 17.58938 | 21526 ft | 419 kts | 174° |
| 2026-05-04 13:48 | -23.23481 | 17.59477 | 21985 ft | 422 kts | 174° |
| 2026-05-04 13:48 | -23.26392 | 17.60015 | 22437 ft | 425 kts | 175° |
| 2026-05-04 13:48 | -23.29319 | 17.60520 | 22910 ft | 427 kts | 176° |
| 2026-05-04 13:48 | -23.32264 | 17.61001 | 23380 ft | 430 kts | 176° |
| 2026-05-04 13:49 | -23.35239 | 17.61474 | 23764 ft | 433 kts | 176° |
| 2026-05-04 13:49 | -23.38230 | 17.61948 | 24132 ft | 436 kts | 176° |
| 2026-05-04 13:49 | -23.41199 | 17.62423 | 24454 ft | 440 kts | 177° |
| 2026-05-04 13:49 | -23.44239 | 17.62916 | 24789 ft | 443 kts | 177° |
| 2026-05-04 13:50 | -23.47297 | 17.63415 | 25122 ft | 446 kts | 177° |
| 2026-05-04 13:50 | -23.50380 | 17.63923 | 25449 ft | 449 kts | 177° |
| 2026-05-04 13:50 | -23.53481 | 17.64434 | 25776 ft | 452 kts | 177° |
| 2026-05-04 13:50 | -23.56598 | 17.64951 | 26100 ft | 455 kts | 178° |
| 2026-05-04 13:51 | -23.59747 | 17.65474 | 26413 ft | 458 kts | 178° |
| 2026-05-04 13:51 | -23.62912 | 17.65995 | 26716 ft | 461 kts | 178° |
| 2026-05-04 13:51 | -23.66094 | 17.66515 | 27026 ft | 464 kts | 178° |
| 2026-05-04 13:51 | -23.69300 | 17.67039 | 27354 ft | 467 kts | 179° |
| 2026-05-04 13:52 | -23.75768 | 17.68104 | 27959 ft | 473 kts | 179° |
| 2026-05-04 13:52 | -23.79043 | 17.68646 | 28266 ft | 476 kts | 179° |
| 2026-05-04 13:52 | -23.82337 | 17.69188 | 28567 ft | 479 kts | 179° |
| 2026-05-04 13:53 | -23.85642 | 17.69725 | 28867 ft | 482 kts | 179° |
| 2026-05-04 13:53 | -23.88970 | 17.70262 | 29165 ft | 485 kts | 179° |
| 2026-05-04 13:53 | -23.92319 | 17.70805 | 29457 ft | 487 kts | 180° |
| 2026-05-04 13:54 | -23.99025 | 17.71896 | 30078 ft | 492 kts | 180° |
| 2026-05-04 13:54 | -24.02414 | 17.72449 | 30424 ft | 492 kts | 180° |
| 2026-05-04 13:54 | -24.09212 | 17.73564 | 31056 ft | 494 kts | 180° |
| 2026-05-04 13:55 | -24.12617 | 17.74124 | 31369 ft | 495 kts | 180° |
| 2026-05-04 13:55 | -24.19408 | 17.75235 | 31993 ft | 496 kts | 181° |
| 2026-05-04 13:55 | -24.22827 | 17.75791 | 32316 ft | 497 kts | 181° |
| 2026-05-04 13:56 | -24.26252 | 17.76349 | 32639 ft | 497 kts | 181° |
| 2026-05-04 13:56 | -24.29677 | 17.76911 | 32970 ft | 498 kts | 181° |
| 2026-05-04 13:56 | -24.36543 | 17.78042 | 33591 ft | 500 kts | 181° |
| 2026-05-04 13:57 | -24.39986 | 17.78605 | 33839 ft | 501 kts | 182° |
| 2026-05-04 13:58 | -24.53793 | 17.80858 | 33895 ft | 503 kts | 182° |
| 2026-05-04 13:58 | -24.64213 | 17.82534 | 33893 ft | 505 kts | 182° |
| 2026-05-04 13:59 | -24.71170 | 17.83644 | 33885 ft | 505 kts | 182° |
| 2026-05-04 14:00 | -24.81604 | 17.85329 | 33888 ft | 505 kts | 182° |
| 2026-05-04 14:00 | -24.92027 | 17.87023 | 33902 ft | 507 kts | 182° |
| 2026-05-04 14:01 | -24.99017 | 17.88152 | 33885 ft | 507 kts | 182° |
| 2026-05-04 14:02 | -25.14070 | 17.90593 | 33882 ft | 508 kts | 182° |
| 2026-05-04 14:02 | -25.28001 | 17.92875 | 33876 ft | 510 kts | 182° |
| 2026-05-04 14:03 | -25.42073 | 17.95196 | 33873 ft | 512 kts | 182° |
| 2026-05-04 14:03 | -25.56199 | 17.97520 | 33887 ft | 513 kts | 182° |
| 2026-05-04 14:04 | -25.77411 | 18.01015 | 33857 ft | 513 kts | 182° |
| 2026-05-04 14:04 | -25.91393 | 18.03337 | 33865 ft | 510 kts | 182° |
| 2026-05-04 14:05 | -26.12505 | 18.06837 | 33911 ft | 511 kts | 181° |
| 2026-05-04 14:06 | -26.26585 | 18.09185 | 33910 ft | 510 kts | 181° |
| 2026-05-04 14:06 | -26.40595 | 18.11521 | 33932 ft | 508 kts | 181° |
| 2026-05-04 14:07 | -26.54471 | 18.13851 | 33936 ft | 505 kts | 181° |
| 2026-05-04 14:07 | -26.68324 | 18.16178 | 33932 ft | 499 kts | 180° |
| 2026-05-04 14:08 | -26.82040 | 18.18485 | 33928 ft | 498 kts | 180° |
| 2026-05-04 14:08 | -26.88903 | 18.19637 | 34530 ft | 496 kts | 172° |
| 2026-05-04 14:08 | -26.93410 | 18.20399 | 34550 ft | 489 kts | 172° |
| 2026-05-04 14:09 | -27.15535 | 18.24127 | 34693 ft | 480 kts | 172° |
| 2026-05-04 14:10 | -27.35254 | 18.27479 | 34831 ft | 475 kts | 172° |
| 2026-05-04 14:10 | -27.48285 | 18.29700 | 34925 ft | 472 kts | 172° |
| 2026-05-04 14:11 | -27.61319 | 18.31537 | 35024 ft | 470 kts | 174° |
| 2026-05-04 14:11 | -27.80698 | 18.33998 | 35168 ft | 467 kts | 173° |
| 2026-05-04 14:12 | -27.93621 | 18.35702 | 35266 ft | 466 kts | 173° |
| 2026-05-04 14:13 | -28.12950 | 18.38242 | 35414 ft | 465 kts | 173° |
| 2026-05-04 14:13 | -28.25745 | 18.39933 | 35511 ft | 464 kts | 173° |
| 2026-05-04 14:14 | -28.38575 | 18.41627 | 35610 ft | 464 kts | 174° |
| 2026-05-04 14:14 | -28.57819 | 18.44189 | 35758 ft | 463 kts | 173° |
| 2026-05-04 14:15 | -28.83330 | 18.47581 | 35955 ft | 462 kts | 173° |
| 2026-05-04 14:16 | -29.00344 | 18.49846 | 36085 ft | 461 kts | 174° |
| 2026-05-04 14:17 | -29.19465 | 18.52399 | 36233 ft | 460 kts | 173° |
| 2026-05-04 14:18 | -29.38540 | 18.54967 | 36381 ft | 459 kts | 173° |
| 2026-05-04 14:18 | -29.51105 | 18.57013 | 36485 ft | 458 kts | 167° |
| 2026-05-04 14:19 | -29.63530 | 18.60290 | 36581 ft | 458 kts | 167° |
| 2026-05-04 14:19 | -29.75935 | 18.63588 | 36680 ft | 457 kts | 167° |
| 2026-05-04 14:20 | -29.88333 | 18.66862 | 36778 ft | 456 kts | 167° |
| 2026-05-04 14:20 | -30.00688 | 18.70128 | 36878 ft | 455 kts | 167° |
| 2026-05-04 14:21 | -30.19118 | 18.75035 | 37027 ft | 454 kts | 167° |
| 2026-05-04 14:21 | -30.31427 | 18.78307 | 37126 ft | 453 kts | 167° |
| 2026-05-04 14:22 | -30.43711 | 18.81605 | 37226 ft | 452 kts | 167° |
| 2026-05-04 14:22 | -30.55942 | 18.84885 | 37326 ft | 451 kts | 167° |
| 2026-05-04 14:23 | -30.74206 | 18.89798 | 37443 ft | 450 kts | 167° |
| 2026-05-04 14:24 | -30.86353 | 18.93072 | 37478 ft | 450 kts | 167° |
| 2026-05-04 14:24 | -30.98560 | 18.96375 | 37510 ft | 450 kts | 167° |
| 2026-05-04 14:25 | -31.10757 | 18.99692 | 37547 ft | 450 kts | 167° |
| 2026-05-04 14:25 | -31.29083 | 19.04680 | 37599 ft | 451 kts | 167° |
| 2026-05-04 14:26 | -31.41415 | 19.07305 | 37625 ft | 450 kts | 178° |
| 2026-05-04 14:26 | -31.53947 | 19.07990 | 37643 ft | 451 kts | 177° |
| 2026-05-04 14:27 | -31.66479 | 19.08716 | 37678 ft | 451 kts | 177° |
| 2026-05-04 14:27 | -31.78950 | 19.09401 | 37710 ft | 451 kts | 178° |
| 2026-05-04 14:28 | -31.91494 | 19.10115 | 37739 ft | 451 kts | 177° |
| 2026-05-04 14:28 | -32.03661 | 19.10788 | 37763 ft | 451 kts | 177° |
| 2026-05-04 14:40 | -32.08429 | 19.11061 | 37778 ft | 451 kts | 177° |
| 2026-05-04 14:41 | -32.14705 | 19.11419 | 37776 ft | 452 kts | 177° |
| 2026-05-04 14:41 | -32.20995 | 19.11770 | 36932 ft | 458 kts | 178° |
| 2026-05-04 14:42 | -32.27623 | 19.12141 | 34224 ft | 490 kts | 177° |
| 2026-05-04 14:42 | -32.31040 | 19.12337 | 33395 ft | 492 kts | 177° |
| 2026-05-04 14:42 | -32.34450 | 19.12537 | 32743 ft | 489 kts | 177° |
| 2026-05-04 14:43 | -32.37837 | 19.12736 | 32163 ft | 484 kts | 177° |
| 2026-05-04 14:43 | -32.41168 | 19.12930 | 31828 ft | 474 kts | 177° |
| 2026-05-04 14:43 | -32.44432 | 19.13115 | 31573 ft | 463 kts | 178° |
| 2026-05-04 14:43 | -32.47614 | 19.13293 | 31321 ft | 453 kts | 178° |
| 2026-05-04 14:44 | -32.50748 | 19.13469 | 31070 ft | 447 kts | 178° |
| 2026-05-04 14:44 | -32.53799 | 19.13638 | 30823 ft | 443 kts | 178° |
| 2026-05-04 14:44 | -32.56870 | 19.13795 | 30573 ft | 440 kts | 178° |
| 2026-05-04 14:44 | -32.59928 | 19.13960 | 30322 ft | 438 kts | 178° |
| 2026-05-04 14:45 | -32.62964 | 19.14132 | 30084 ft | 436 kts | 177° |
| 2026-05-04 14:45 | -32.65987 | 19.14314 | 30071 ft | 435 kts | 177° |
| 2026-05-04 14:45 | -32.72037 | 19.14675 | 29976 ft | 436 kts | 177° |
| 2026-05-04 14:46 | -32.75047 | 19.14851 | 29707 ft | 430 kts | 177° |
| 2026-05-04 14:46 | -32.78036 | 19.15029 | 29268 ft | 428 kts | 177° |
| 2026-05-04 14:46 | -32.81002 | 19.15207 | 28825 ft | 425 kts | 177° |
| 2026-05-04 14:46 | -32.83946 | 19.15376 | 28396 ft | 423 kts | 178° |
| 2026-05-04 14:47 | -32.86885 | 19.15538 | 27965 ft | 420 kts | 178° |
| 2026-05-04 14:47 | -32.89763 | 19.15698 | 27541 ft | 419 kts | 178° |
| 2026-05-04 14:47 | -32.92666 | 19.15861 | 27110 ft | 417 kts | 178° |
| 2026-05-04 14:47 | -32.95553 | 19.16023 | 26675 ft | 414 kts | 178° |
| 2026-05-04 14:48 | -32.98427 | 19.16187 | 26237 ft | 412 kts | 177° |
| 2026-05-04 14:48 | -33.01282 | 19.16354 | 25802 ft | 410 kts | 177° |
| 2026-05-04 14:48 | -33.04123 | 19.16526 | 25347 ft | 408 kts | 177° |
| 2026-05-04 14:48 | -33.06950 | 19.16695 | 24898 ft | 405 kts | 177° |
| 2026-05-04 14:49 | -33.09758 | 19.16858 | 24433 ft | 404 kts | 177° |
| 2026-05-04 14:49 | -33.12559 | 19.17021 | 23970 ft | 401 kts | 177° |
| 2026-05-04 14:49 | -33.15343 | 19.17183 | 23503 ft | 399 kts | 177° |
| 2026-05-04 14:49 | -33.18111 | 19.17345 | 23038 ft | 397 kts | 177° |
| 2026-05-04 14:50 | -33.20868 | 19.17505 | 22567 ft | 394 kts | 177° |
| 2026-05-04 14:50 | -33.22678 | 19.17609 | 22259 ft | 393 kts | 178° |
| 2026-05-04 14:50 | -33.26313 | 19.17812 | 21640 ft | 389 kts | 178° |
| 2026-05-04 14:50 | -33.29006 | 19.17965 | 21180 ft | 385 kts | 178° |
| 2026-05-04 14:51 | -33.31672 | 19.18117 | 20723 ft | 382 kts | 178° |
| 2026-05-04 14:51 | -33.34320 | 19.18269 | 20268 ft | 379 kts | 177° |
| 2026-05-04 14:51 | -33.36914 | 19.18423 | 19822 ft | 376 kts | 177° |
| 2026-05-04 14:51 | -33.39513 | 19.18313 | 19368 ft | 372 kts | 190° |
| 2026-05-04 14:52 | -33.41202 | 19.17800 | 19068 ft | 370 kts | 200° |
| 2026-05-04 14:52 | -33.44154 | 19.15833 | 18477 ft | 365 kts | 219° |
| 2026-05-04 14:52 | -33.46071 | 19.13856 | 18035 ft | 362 kts | 221° |
| 2026-05-04 14:52 | -33.47966 | 19.11886 | 17594 ft | 359 kts | 221° |
| 2026-05-04 14:53 | -33.49849 | 19.09930 | 17161 ft | 357 kts | 221° |
| 2026-05-04 14:53 | -33.51718 | 19.07991 | 16729 ft | 354 kts | 221° |
| 2026-05-04 14:53 | -33.53570 | 19.06070 | 16301 ft | 351 kts | 221° |
| 2026-05-04 14:53 | -33.55409 | 19.04158 | 15878 ft | 348 kts | 221° |
| 2026-05-04 14:54 | -33.57234 | 19.02259 | 15457 ft | 346 kts | 221° |
| 2026-05-04 14:54 | -33.59041 | 19.00380 | 15171 ft | 339 kts | 221° |
| 2026-05-04 14:54 | -33.60792 | 18.98554 | 14973 ft | 330 kts | 221° |
| 2026-05-04 14:54 | -33.62516 | 18.96750 | 14609 ft | 327 kts | 221° |
| 2026-05-04 14:55 | -33.63649 | 18.95565 | 14348 ft | 325 kts | 221° |
| 2026-05-04 14:55 | -33.65908 | 18.93197 | 13554 ft | 320 kts | 221° |
| 2026-05-04 14:55 | -33.67567 | 18.91454 | 13084 ft | 313 kts | 221° |
| 2026-05-04 14:55 | -33.69166 | 18.89776 | 12702 ft | 304 kts | 221° |
| 2026-05-04 14:56 | -33.70738 | 18.88129 | 12337 ft | 295 kts | 221° |
| 2026-05-04 14:56 | -33.72264 | 18.86528 | 11984 ft | 287 kts | 221° |
| 2026-05-04 14:56 | -33.73271 | 18.85471 | 11749 ft | 282 kts | 221° |
| 2026-05-04 14:56 | -33.75212 | 18.83433 | 11295 ft | 279 kts | 221° |
| 2026-05-04 14:57 | -33.76667 | 18.81901 | 10955 ft | 278 kts | 221° |
| 2026-05-04 14:57 | -33.78121 | 18.80371 | 10616 ft | 278 kts | 221° |
| 2026-05-04 14:57 | -33.79577 | 18.78839 | 10272 ft | 278 kts | 221° |
| 2026-05-04 14:57 | -33.80442 | 18.77931 | 10069 ft | 278 kts | 221° |
| 2026-05-04 14:58 | -33.81158 | 18.77179 | 9901 ft | 275 kts | 221° |
| 2026-05-04 14:58 | -33.82551 | 18.75715 | 9794 ft | 256 kts | 221° |
| 2026-05-04 14:58 | -33.83865 | 18.74331 | 9708 ft | 248 kts | 221° |
| 2026-05-04 14:58 | -33.84716 | 18.73435 | 9633 ft | 242 kts | 221° |
| 2026-05-04 14:59 | -33.86351 | 18.71709 | 9489 ft | 230 kts | 221° |